Time;durP1;ratioP1;P1;durP2;ratioP2;P2;SDS_P1;SDS_P2;PMS_P1;PMS_P2;Temp;Humidity;BMP_temperature;BMP_pressure;BME280_temperature;BME280_humidity;BME280_pressure;Samples;Min_cycle;Max_cycle;Signal;HPM_P1;HPM_P2
2022/04/24 00:01:13;;;;;;;0.00;0.00;;;13.20;99.90;;;;;;5143439;27;20030;-73
2022/04/24 00:03:39;;;;;;;0.00;0.00;;;13.10;99.90;;;;;;5143778;27;20023;-74
2022/04/24 00:06:05;;;;;;;0.00;0.00;;;13.20;99.90;;;;;;5142876;27;20078;-74
2022/04/24 00:08:31;;;;;;;0.00;0.00;;;13.10;99.90;;;;;;5143544;27;20047;-73
2022/04/24 00:10:56;;;;;;;0.00;0.00;;;13.10;99.90;;;;;;5142848;27;20043;-73
2022/04/24 00:13:23;;;;;;;0.00;0.00;;;13.10;99.90;;;;;;5124919;28;20030;-73
2022/04/24 00:15:50;;;;;;;0.00;0.00;;;13.00;99.90;;;;;;5142251;27;20278;-73
2022/04/24 00:18:15;;;;;;;0.00;0.00;;;13.10;99.90;;;;;;5125210;28;20026;-75
2022/04/24 00:20:43;;;;;;;0.03;0.03;;;13.00;99.90;;;;;;5143307;28;20078;-73
2022/04/24 00:23:08;;;;;;;0.00;0.00;;;13.00;99.90;;;;;;5137276;28;20163;-73
2022/04/24 00:25:34;;;;;;;0.00;0.00;;;13.00;99.90;;;;;;5137480;28;20011;-73
2022/04/24 00:28:02;;;;;;;0.00;0.00;;;13.00;99.90;;;;;;5138852;28;20199;-74
2022/04/24 00:30:28;;;;;;;0.00;0.00;;;13.00;99.90;;;;;;5143364;28;20022;-74
2022/04/24 00:32:53;;;;;;;0.00;0.00;;;13.00;99.90;;;;;;5142644;28;20322;-73
2022/04/24 00:35:19;;;;;;;0.00;0.00;;;13.00;99.90;;;;;;5143642;28;20042;-75
2022/04/24 00:37:45;;;;;;;0.00;0.00;;;12.90;99.90;;;;;;5125187;28;20019;-73
2022/04/24 00:40:11;;;;;;;0.00;0.00;;;13.00;99.90;;;;;;5142698;28;20090;-73
2022/04/24 00:42:37;;;;;;;0.00;0.00;;;13.00;99.90;;;;;;5125138;28;20030;-74
2022/04/24 00:45:02;;;;;;;0.28;0.10;;;13.00;99.90;;;;;;5142333;28;20186;-74
2022/04/24 00:47:29;;;;;;;0.00;0.00;;;13.00;99.90;;;;;;5125103;28;20070;-75
2022/04/24 00:49:55;;;;;;;0.00;0.00;;;13.00;99.90;;;;;;5124069;27;20156;-74
2022/04/24 00:52:20;;;;;;;0.00;0.00;;;12.90;99.90;;;;;;5142311;28;20024;-74
2022/04/24 00:54:46;;;;;;;0.00;0.00;;;12.90;99.90;;;;;;5105419;28;20317;-74
2022/04/24 00:57:13;;;;;;;1.27;0.70;;;12.90;99.90;;;;;;5139779;28;20321;-74
2022/04/24 00:59:40;;;;;;;0.00;0.00;;;12.90;99.90;;;;;;5125045;28;20298;-75
2022/04/24 01:02:07;;;;;;;0.00;0.00;;;12.90;99.90;;;;;;5143178;28;20019;-74
2022/04/24 01:04:37;;;;;;;2.00;0.65;;;12.90;99.90;;;;;;5125090;28;20047;-73
2022/04/24 01:07:04;;;;;;;0.10;0.10;;;12.80;99.90;;;;;;5124328;28;20023;-73
2022/04/24 01:09:50;;;;;;;0.00;0.00;;;12.80;99.90;;;;;;5125058;28;20302;-74
2022/04/24 01:12:15;;;;;;;0.00;0.00;;;12.80;99.90;;;;;;5143117;28;20030;-74
2022/04/24 01:14:41;;;;;;;0.00;0.00;;;12.80;99.90;;;;;;5124787;28;20023;-74
2022/04/24 01:17:07;;;;;;;1.13;1.08;;;12.80;99.90;;;;;;5142446;28;20083;-74
2022/04/24 01:19:33;;;;;;;0.00;0.00;;;12.80;99.90;;;;;;5143135;28;20090;-73
2022/04/24 01:21:59;;;;;;;0.00;0.00;;;12.80;99.90;;;;;;5123886;28;20026;-73
2022/04/24 01:24:26;;;;;;;0.00;0.00;;;12.80;99.90;;;;;;5124798;28;20019;-73
2022/04/24 01:26:52;;;;;;;0.00;0.00;;;12.70;99.90;;;;;;5142217;27;20087;-72
2022/04/24 01:29:19;;;;;;;0.00;0.00;;;12.60;99.90;;;;;;5145881;27;20027;-73
2022/04/24 01:31:47;;;;;;;0.10;0.10;;;12.60;99.90;;;;;;5146132;27;20030;-73
2022/04/24 01:34:13;;;;;;;0.00;0.00;;;12.60;99.90;;;;;;5127517;27;20081;-73
2022/04/24 01:36:39;;;;;;;0.00;0.00;;;12.60;99.90;;;;;;5146367;27;20019;-74
2022/04/24 01:39:04;;;;;;;0.00;0.00;;;12.60;99.90;;;;;;5145669;27;20202;-73
2022/04/24 01:41:31;;;;;;;0.00;0.00;;;12.60;99.90;;;;;;5145958;27;20063;-73
2022/04/24 01:43:57;;;;;;;0.00;0.00;;;12.60;99.90;;;;;;5125562;27;20328;-73
2022/04/24 01:46:23;;;;;;;0.00;0.00;;;12.50;99.90;;;;;;5126779;27;20100;-72
2022/04/24 01:48:49;;;;;;;0.00;0.00;;;12.40;99.90;;;;;;5145883;27;20025;-73
2022/04/24 01:51:15;;;;;;;0.00;0.00;;;12.30;99.90;;;;;;5126804;27;20046;-74
2022/04/24 01:53:41;;;;;;;0.00;0.00;;;12.30;99.90;;;;;;5145817;27;20027;-73
2022/04/24 01:56:08;;;;;;;0.00;0.00;;;12.30;99.90;;;;;;5145124;27;20026;-73
2022/04/24 01:58:34;;;;;;;0.00;0.00;;;12.30;99.90;;;;;;5145864;27;20326;-74
2022/04/24 02:01:01;;;;;;;0.00;0.00;;;12.30;99.90;;;;;;5145299;27;20079;-73
2022/04/24 02:03:28;;;;;;;0.00;0.00;;;12.20;99.90;;;;;;5145880;27;20023;-73
2022/04/24 02:05:54;;;;;;;0.00;0.00;;;12.20;99.90;;;;;;5127210;27;20015;-73
2022/04/24 02:08:20;;;;;;;0.00;0.00;;;12.20;99.90;;;;;;5143034;27;20068;-73
2022/04/24 02:10:47;;;;;;;0.00;0.00;;;12.20;99.90;;;;;;5142619;27;20015;-73
2022/04/24 02:13:13;;;;;;;0.00;0.00;;;12.20;99.90;;;;;;5123573;27;20046;-73
2022/04/24 02:15:39;;;;;;;0.00;0.00;;;12.20;99.90;;;;;;5141951;27;20018;-73
2022/04/24 02:18:05;;;;;;;0.00;0.00;;;12.20;99.90;;;;;;5123323;27;20074;-73
2022/04/24 02:20:31;;;;;;;0.00;0.00;;;12.10;99.90;;;;;;5143769;27;20015;-73
2022/04/24 02:22:58;;;;;;;0.00;0.00;;;12.10;99.90;;;;;;5143439;27;20045;-72
2022/04/24 02:25:28;;;;;;;0.00;0.00;;;12.10;99.90;;;;;;5144156;27;20020;-73
2022/04/24 02:27:55;;;;;;;0.00;0.00;;;12.00;99.90;;;;;;5145147;27;20015;-73
2022/04/24 02:30:23;;;;;;;0.00;0.00;;;12.00;99.90;;;;;;5127312;27;20039;-73
2022/04/24 02:32:49;;;;;;;0.00;0.00;;;12.00;99.90;;;;;;5145578;27;20071;-74
2022/04/24 02:35:14;;;;;;;0.00;0.00;;;12.00;99.90;;;;;;5126677;27;20149;-75
2022/04/24 02:37:40;;;;;;;0.00;0.00;;;11.90;99.90;;;;;;5145468;27;20019;-74
2022/04/24 02:40:10;;;;;;;0.00;0.00;;;11.90;99.90;;;;;;5126240;27;20290;-73
2022/04/24 02:42:39;;;;;;;0.00;0.00;;;11.90;99.90;;;;;;5126601;27;20029;-74
2022/04/24 02:45:06;;;;;;;0.00;0.00;;;11.90;99.90;;;;;;5144294;27;20038;-74
2022/04/24 02:47:32;;;;;;;0.10;0.10;;;11.80;99.90;;;;;;5144851;27;20019;-74
2022/04/24 02:49:58;;;;;;;0.00;0.00;;;11.80;99.90;;;;;;5144259;27;20324;-74
2022/04/24 02:52:23;;;;;;;0.00;0.00;;;11.80;99.90;;;;;;5144879;27;20027;-74
2022/04/24 02:54:49;;;;;;;0.00;0.00;;;11.80;99.90;;;;;;5126547;27;20023;-73
2022/04/24 02:57:15;;;;;;;0.00;0.00;;;11.80;99.90;;;;;;5144571;27;20019;-74
2022/04/24 02:59:42;;;;;;;0.00;0.00;;;11.80;99.90;;;;;;5144757;27;20015;-73
2022/04/24 03:02:09;;;;;;;0.00;0.00;;;11.80;99.90;;;;;;5125793;27;20214;-73
2022/04/24 03:04:35;;;;;;;0.00;0.00;;;11.80;99.90;;;;;;5126264;27;20026;-73
2022/04/24 03:07:01;;;;;;;0.00;0.00;;;11.80;99.90;;;;;;5144145;27;20027;-73
2022/04/24 03:09:27;;;;;;;0.00;0.00;;;11.80;99.90;;;;;;5126475;27;20015;-73
2022/04/24 03:11:52;;;;;;;0.00;0.00;;;11.80;99.90;;;;;;5144606;27;20030;-74
2022/04/24 03:14:18;;;;;;;0.00;0.00;;;11.80;99.90;;;;;;5125809;27;20375;-73
2022/04/24 03:16:44;;;;;;;0.00;0.00;;;11.70;99.90;;;;;;5125941;27;20026;-74
2022/04/24 03:19:09;;;;;;;0.00;0.00;;;11.80;99.90;;;;;;5108135;27;20086;-73
2022/04/24 03:21:35;;;;;;;0.00;0.00;;;11.70;99.90;;;;;;5144614;27;20024;-74
2022/04/24 03:24:01;;;;;;;0.00;0.00;;;11.70;99.90;;;;;;5143688;27;20019;-74
2022/04/24 03:26:27;;;;;;;0.00;0.00;;;11.70;99.90;;;;;;5125900;27;20175;-74
2022/04/24 03:28:52;;;;;;;0.00;0.00;;;11.70;99.90;;;;;;5143844;27;20022;-74
2022/04/24 03:31:18;;;;;;;0.00;0.00;;;11.70;99.90;;;;;;5143853;27;20019;-73
2022/04/24 03:33:44;;;;;;;0.00;0.00;;;11.70;99.90;;;;;;5143870;27;20306;-74
2022/04/24 03:36:09;;;;;;;0.00;0.00;;;11.60;99.90;;;;;;5125290;27;20027;-73
2022/04/24 03:38:35;;;;;;;0.00;0.00;;;11.60;99.90;;;;;;5143953;27;20078;-73
2022/04/24 03:41:01;;;;;;;0.00;0.00;;;11.60;99.90;;;;;;5125222;27;20030;-73
2022/04/24 03:43:27;;;;;;;0.00;0.00;;;11.60;99.90;;;;;;5143806;27;20347;-73
2022/04/24 03:45:53;;;;;;;0.00;0.00;;;11.60;99.90;;;;;;5144129;27;20127;-74
2022/04/24 03:48:19;;;;;;;0.00;0.00;;;11.50;99.90;;;;;;5143054;27;20256;-73
2022/04/24 03:50:44;;;;;;;0.00;0.00;;;11.50;99.90;;;;;;5140222;27;20277;-73
2022/04/24 03:53:12;;;;;;;0.00;0.00;;;11.50;99.90;;;;;;5140128;27;20186;-73
2022/04/24 03:55:38;;;;;;;0.00;0.00;;;11.50;99.90;;;;;;5140760;27;20095;-73
2022/04/24 03:58:04;;;;;;;0.00;0.00;;;11.40;99.90;;;;;;5121371;27;20023;-73
2022/04/24 04:00:30;;;;;;;0.00;0.00;;;11.40;99.90;;;;;;5141306;27;20083;-73
2022/04/24 04:02:56;;;;;;;0.00;0.00;;;11.40;99.90;;;;;;5125069;27;20026;-73
2022/04/24 04:05:22;;;;;;;0.00;0.00;;;11.40;99.90;;;;;;5142629;27;20232;-73
2022/04/24 04:07:48;;;;;;;0.00;0.00;;;11.50;99.90;;;;;;5125450;27;20107;-73
2022/04/24 04:10:14;;;;;;;0.00;0.00;;;11.40;99.90;;;;;;5124458;27;20023;-72
2022/04/24 04:12:40;;;;;;;0.65;0.65;;;11.40;99.90;;;;;;5143277;27;20026;-73
2022/04/24 04:15:07;;;;;;;0.00;0.00;;;11.40;99.90;;;;;;5124764;28;20023;-73
2022/04/24 04:17:32;;;;;;;0.10;0.10;;;11.50;99.90;;;;;;5125374;28;20039;-73
2022/04/24 04:19:59;;;;;;;0.00;0.00;;;11.50;99.90;;;;;;5143304;28;20281;-74
2022/04/24 04:22:25;;;;;;;0.00;0.00;;;11.40;99.90;;;;;;5124539;28;20018;-73
2022/04/24 04:24:52;;;;;;;0.00;0.00;;;11.50;99.90;;;;;;5143666;28;20270;-74
2022/04/24 04:27:18;;;;;;;0.00;0.00;;;11.40;99.90;;;;;;5143025;28;20019;-74
2022/04/24 04:29:44;;;;;;;0.00;0.00;;;11.40;99.90;;;;;;5125159;28;20019;-73
2022/04/24 04:32:10;;;;;;;0.00;0.00;;;11.40;99.90;;;;;;5124367;28;20046;-73
2022/04/24 04:34:35;;;;;;;0.00;0.00;;;11.40;99.90;;;;;;5124838;28;20289;-73
2022/04/24 04:37:02;;;;;;;0.00;0.00;;;11.40;99.90;;;;;;5143067;28;20206;-73
2022/04/24 04:39:28;;;;;;;0.00;0.00;;;11.40;99.90;;;;;;5124744;28;20043;-73
2022/04/24 04:41:53;;;;;;;0.00;0.00;;;11.40;99.90;;;;;;5143389;28;20321;-73
2022/04/24 04:44:19;;;;;;;0.00;0.00;;;11.40;99.90;;;;;;5124223;28;20268;-73
2022/04/24 04:46:45;;;;;;;0.00;0.00;;;11.40;99.90;;;;;;5125087;28;20015;-73
2022/04/24 04:49:10;;;;;;;0.00;0.00;;;11.50;99.90;;;;;;5142946;28;20313;-73
2022/04/24 04:51:36;;;;;;;0.00;0.00;;;11.40;99.90;;;;;;5142906;28;20073;-74
2022/04/24 04:54:02;;;;;;;0.00;0.00;;;11.50;99.90;;;;;;5143163;28;20375;-74
2022/04/24 04:56:28;;;;;;;0.00;0.00;;;11.50;99.90;;;;;;5142991;28;20019;-73
2022/04/24 04:58:54;;;;;;;0.00;0.00;;;11.50;99.90;;;;;;5143289;28;20049;-73
2022/04/24 05:01:19;;;;;;;0.00;0.00;;;11.50;99.90;;;;;;5142636;27;20018;-73
2022/04/24 05:03:45;;;;;;;0.00;0.00;;;11.50;99.90;;;;;;5128255;27;20104;-73
2022/04/24 05:06:11;;;;;;;0.00;0.00;;;11.50;99.90;;;;;;5146236;27;20131;-73
2022/04/24 05:08:36;;;;;;;0.00;0.00;;;11.50;99.90;;;;;;5147358;27;20019;-74
2022/04/24 05:11:02;;;;;;;0.00;0.00;;;11.50;99.90;;;;;;5128769;27;20015;-74
2022/04/24 05:13:28;;;;;;;0.00;0.00;;;11.60;99.90;;;;;;5146736;27;20124;-73
2022/04/24 05:15:54;;;;;;;0.00;0.00;;;11.60;99.90;;;;;;5128604;27;20314;-73
2022/04/24 05:18:20;;;;;;;0.00;0.00;;;11.70;99.90;;;;;;5146266;27;20054;-74
2022/04/24 05:20:46;;;;;;;0.00;0.00;;;11.80;99.90;;;;;;5147457;27;20065;-75
2022/04/24 05:23:12;;;;;;;0.00;0.00;;;11.90;99.90;;;;;;5145905;27;20294;-75
2022/04/24 05:25:38;;;;;;;0.00;0.00;;;12.00;99.90;;;;;;5128341;27;20022;-74
2022/04/24 05:28:05;;;;;;;0.00;0.00;;;12.10;99.90;;;;;;5146287;27;20023;-74
2022/04/24 05:30:32;;;;;;;0.13;0.13;;;12.20;99.90;;;;;;5128392;27;20015;-73
2022/04/24 05:32:58;;;;;;;0.00;0.00;;;12.20;99.90;;;;;;5146642;27;20092;-73
2022/04/24 05:35:23;;;;;;;0.00;0.00;;;12.30;99.90;;;;;;5146275;27;20011;-73
2022/04/24 05:37:50;;;;;;;0.00;0.00;;;12.30;99.90;;;;;;5146164;27;20290;-73
2022/04/24 05:40:16;;;;;;;0.00;0.00;;;12.30;99.90;;;;;;5127475;27;20015;-73
2022/04/24 05:42:52;;;;;;;0.05;0.05;;;12.30;99.90;;;;;;5127636;27;20098;-73
2022/04/24 05:45:22;;;;;;;0.00;0.00;;;12.40;99.90;;;;;;5127366;27;20026;-73
2022/04/24 05:47:53;;;;;;;0.00;0.00;;;12.50;99.90;;;;;;5146094;27;20015;-73
2022/04/24 05:50:20;;;;;;;0.00;0.00;;;12.50;99.90;;;;;;5145476;27;20065;-73
2022/04/24 05:52:46;;;;;;;0.00;0.00;;;12.50;99.90;;;;;;5146141;27;20068;-74
2022/04/24 05:55:12;;;;;;;0.00;0.00;;;12.60;99.90;;;;;;5127211;27;20023;-73
2022/04/24 05:57:38;;;;;;;0.00;0.00;;;12.60;99.90;;;;;;5145908;27;20049;-73
2022/04/24 06:00:06;;;;;;;0.00;0.00;;;12.80;99.90;;;;;;5145672;27;20019;-74
2022/04/24 06:02:31;;;;;;;0.00;0.00;;;12.90;99.90;;;;;;5127330;27;20019;-73
2022/04/24 06:04:57;;;;;;;0.00;0.00;;;13.00;99.90;;;;;;5127674;27;20029;-74
2022/04/24 06:07:23;;;;;;;0.10;0.10;;;13.10;99.90;;;;;;5126996;27;20015;-74
2022/04/24 06:09:50;;;;;;;0.00;0.00;;;13.20;99.90;;;;;;5145475;27;20022;-74
2022/04/24 06:12:16;;;;;;;0.00;0.00;;;13.30;99.90;;;;;;5126920;27;20019;-73
2022/04/24 06:14:41;;;;;;;0.00;0.00;;;13.40;99.90;;;;;;5126562;27;20023;-74
2022/04/24 06:17:08;;;;;;;0.00;0.00;;;13.50;99.90;;;;;;5127472;27;20027;-74
2022/04/24 06:19:34;;;;;;;0.00;0.00;;;13.50;99.90;;;;;;5145426;27;20022;-73
2022/04/24 06:22:00;;;;;;;0.00;0.00;;;13.60;99.90;;;;;;5126915;27;20042;-74
2022/04/24 06:24:26;;;;;;;0.30;0.25;;;13.90;99.90;;;;;;5126741;27;20071;-73
2022/04/24 06:26:52;;;;;;;0.00;0.00;;;14.10;99.90;;;;;;5145707;27;20026;-75
2022/04/24 06:29:17;;;;;;;0.22;0.20;;;14.30;99.90;;;;;;5144841;27;20212;-74
2022/04/24 06:31:43;;;;;;;0.00;0.00;;;14.30;99.90;;;;;;5126919;27;20034;-73
2022/04/24 06:34:10;;;;;;;0.00;0.00;;;14.40;99.90;;;;;;5145076;27;20344;-73
2022/04/24 06:36:37;;;;;;;0.00;0.00;;;14.30;99.90;;;;;;5145466;27;20015;-73
2022/04/24 06:39:03;;;;;;;0.00;0.00;;;14.30;99.90;;;;;;5127030;27;20053;-74
2022/04/24 06:41:29;;;;;;;0.00;0.00;;;14.30;99.90;;;;;;5126328;27;20198;-74
2022/04/24 06:43:55;;;;;;;0.00;0.00;;;14.20;99.90;;;;;;5126838;27;20026;-74
2022/04/24 06:46:21;;;;;;;0.00;0.00;;;14.20;99.90;;;;;;5126464;27;20015;-74
2022/04/24 06:48:46;;;;;;;0.00;0.00;;;14.20;99.90;;;;;;5126917;27;20306;-74
2022/04/24 06:51:12;;;;;;;0.00;0.00;;;14.20;99.90;;;;;;5144305;27;20106;-74
2022/04/24 06:53:39;;;;;;;0.00;0.00;;;14.20;99.90;;;;;;5144661;27;20290;-73
2022/04/24 06:56:05;;;;;;;0.00;0.00;;;14.20;99.90;;;;;;5126096;27;20019;-75
2022/04/24 06:58:31;;;;;;;0.00;0.00;;;14.30;99.90;;;;;;5144519;27;20019;-75
2022/04/24 07:00:57;;;;;;;0.00;0.00;;;14.30;99.90;;;;;;5144628;27;20015;-75
2022/04/24 07:03:24;;;;;;;0.00;0.00;;;14.30;99.90;;;;;;5125916;27;20031;-74
2022/04/24 07:05:53;;;;;;;0.00;0.00;;;14.40;99.90;;;;;;5144900;27;20022;-74
2022/04/24 07:08:19;;;;;;;0.00;0.00;;;14.40;99.90;;;;;;5125754;27;20019;-73
2022/04/24 07:10:45;;;;;;;0.00;0.00;;;14.40;99.90;;;;;;5144653;27;20015;-74
2022/04/24 07:13:11;;;;;;;0.00;0.00;;;14.50;99.90;;;;;;5144320;27;20068;-73
2022/04/24 07:15:41;;;;;;;0.00;0.00;;;14.60;99.90;;;;;;5144505;27;20282;-73
2022/04/24 07:18:13;;;;;;;0.00;0.00;;;14.60;99.90;;;;;;5126281;27;20026;-75
2022/04/24 07:20:39;;;;;;;0.00;0.00;;;14.60;99.90;;;;;;5126396;27;20182;-74
2022/04/24 07:23:07;;;;;;;0.00;0.00;;;14.60;99.90;;;;;;5109187;27;20054;-74
2022/04/24 07:25:34;;;;;;;;;;;14.60;99.90;;;;;;5143889;27;20019;-73
2022/04/24 07:28:00;;;;;;;0.00;0.00;;;14.60;99.90;;;;;;5144452;27;19906;-74
2022/04/24 07:30:25;;;;;;;0.00;0.00;;;14.60;99.90;;;;;;5125292;27;20015;-73
2022/04/24 07:32:56;;;;;;;0.00;0.00;;;14.50;99.90;;;;;;5125426;27;20325;-74
2022/04/24 07:35:30;;;;;;;0.00;0.00;;;14.50;99.90;;;;;;5143432;27;20214;-74
2022/04/24 07:37:56;;;;;;;0.00;0.00;;;14.50;99.90;;;;;;5143903;27;20056;-74
2022/04/24 07:40:23;;;;;;;0.00;0.00;;;14.50;99.90;;;;;;5125327;27;20029;-73
2022/04/24 07:42:57;;;;;;;0.00;0.00;;;14.60;99.90;;;;;;5143482;27;20015;-74
2022/04/24 07:45:30;;;;;;;0.00;0.00;;;14.70;99.90;;;;;;5125227;27;20031;-73
2022/04/24 07:47:57;;;;;;;0.00;0.00;;;14.70;99.90;;;;;;5125457;27;20323;-75
2022/04/24 07:50:27;;;;;;;0.00;0.00;;;14.70;99.90;;;;;;5124713;27;20122;-74
2022/04/24 07:52:54;;;;;;;0.00;0.00;;;14.70;99.90;;;;;;5143551;27;20096;-75
2022/04/24 07:55:22;;;;;;;0.00;0.00;;;14.80;99.90;;;;;;5107984;27;20044;-75
2022/04/24 07:57:50;;;;;;;0.00;0.00;;;14.80;99.90;;;;;;5143539;27;20019;-74
2022/04/24 08:00:22;;;;;;;0.00;0.00;;;14.80;99.90;;;;;;5142297;27;20290;-74
2022/04/24 08:02:57;;;;;;;0.00;0.00;;;14.90;99.90;;;;;;5125927;27;20089;-74
2022/04/24 08:05:27;;;;;;;0.00;0.00;;;15.10;99.90;;;;;;5143196;27;20047;-74
2022/04/24 08:07:55;;;;;;;0.00;0.00;;;15.10;99.90;;;;;;5143469;27;20011;-74
2022/04/24 08:10:22;;;;;;;0.00;0.00;;;15.30;99.90;;;;;;5124401;27;20051;-73
2022/04/24 08:12:48;;;;;;;1.45;0.10;;;15.30;99.90;;;;;;5143341;27;20031;-74
2022/04/24 08:15:16;;;;;;;0.20;0.03;;;15.30;99.90;;;;;;5143694;27;20023;-74
2022/04/24 08:17:42;;;;;;;0.00;0.00;;;15.40;99.90;;;;;;5143691;28;20022;-74
2022/04/24 08:20:11;;;;;;;0.00;0.00;;;15.40;99.90;;;;;;5143221;28;20027;-75
2022/04/24 08:22:44;;;;;;;0.00;0.00;;;15.40;99.90;;;;;;5142809;28;20410;-74
2022/04/24 08:25:11;;;;;;;0.00;0.00;;;15.40;99.90;;;;;;5125223;28;20018;-74
2022/04/24 08:27:38;;;;;;;0.00;0.00;;;15.50;99.90;;;;;;5143072;28;20019;-74
2022/04/24 08:30:06;;;;;;;0.00;0.00;;;15.60;99.90;;;;;;5143311;28;20030;-74
2022/04/24 08:32:32;;;;;;;0.00;0.00;;;15.70;99.90;;;;;;5124612;28;20051;-74
2022/04/24 08:34:58;;;;;;;0.43;0.30;;;15.70;99.90;;;;;;5125026;28;20026;-74
2022/04/24 08:37:25;;;;;;;0.00;0.00;;;15.70;99.90;;;;;;5126656;27;20019;-74
2022/04/24 08:39:52;;;;;;;0.10;0.10;;;15.60;99.90;;;;;;5147538;27;20064;-74
2022/04/24 08:42:21;;;;;;;0.15;0.15;;;15.70;99.90;;;;;;5128729;27;20094;-75
2022/04/24 08:44:51;;;;;;;0.00;0.00;;;15.70;99.90;;;;;;5147807;27;20071;-75
2022/04/24 08:47:19;;;;;;;0.00;0.00;;;15.80;99.90;;;;;;5129290;27;20305;-75
2022/04/24 08:49:45;;;;;;;0.00;0.00;;;15.80;99.90;;;;;;5147566;27;20023;-74
2022/04/24 08:52:12;;;;;;;0.68;0.68;;;15.80;99.90;;;;;;5146718;27;20106;-74
2022/04/24 08:54:41;;;;;;;0.00;0.00;;;15.80;99.90;;;;;;5128515;27;20231;-74
2022/04/24 08:57:10;;;;;;;;;;;15.80;99.90;;;;;;5129652;27;20019;-75
2022/04/24 08:59:39;;;;;;;0.00;0.00;;;15.90;99.90;;;;;;5128249;27;19940;-75
2022/04/24 09:02:06;;;;;;;0.00;0.00;;;15.90;99.90;;;;;;5111627;27;20071;-74
2022/04/24 09:04:39;;;;;;;0.00;0.00;;;15.90;99.90;;;;;;5146697;27;20067;-74
2022/04/24 09:07:07;;;;;;;0.00;0.00;;;15.90;99.90;;;;;;5146926;27;20086;-74
2022/04/24 09:09:51;;;;;;;0.75;0.17;;;15.90;99.90;;;;;;5128042;27;20047;-75
2022/04/24 09:12:21;;;;;;;0.00;0.00;;;15.90;99.90;;;;;;5146927;27;20042;-74
2022/04/24 09:14:51;;;;;;;0.00;0.00;;;16.00;99.90;;;;;;5146581;27;20023;-74
2022/04/24 09:17:21;;;;;;;0.00;0.00;;;16.00;99.90;;;;;;5127827;27;20015;-74
2022/04/24 09:19:49;;;;;;;0.00;0.00;;;16.10;99.90;;;;;;5146755;27;20159;-74
2022/04/24 09:22:15;;;;;;;0.00;0.00;;;16.10;99.90;;;;;;5128544;27;20023;-73
2022/04/24 09:24:44;;;;;;;0.00;0.00;;;16.10;99.90;;;;;;5127689;27;20026;-74
2022/04/24 09:27:11;;;;;;;0.00;0.00;;;16.10;99.90;;;;;;5128300;27;20019;-74
2022/04/24 09:29:39;;;;;;;0.08;0.05;;;16.10;99.90;;;;;;5146280;27;20015;-76
2022/04/24 09:32:12;;;;;;;0.00;0.00;;;16.10;99.90;;;;;;5146918;27;20039;-75
2022/04/24 09:34:38;;;;;;;0.70;0.10;;;16.20;99.90;;;;;;5127249;27;20022;-74
2022/04/24 09:37:09;;;;;;;0.00;0.00;;;16.30;99.90;;;;;;5146534;27;20070;-75
2022/04/24 09:39:36;;;;;;;0.00;0.00;;;16.30;99.90;;;;;;5127866;27;20027;-73
2022/04/24 09:42:07;;;;;;;0.47;0.05;;;16.30;99.90;;;;;;5146514;27;20022;-74
2022/04/24 09:44:40;;;;;;;0.00;0.00;;;16.40;99.90;;;;;;5127921;27;20042;-73
2022/04/24 09:47:06;;;;;;;0.00;0.00;;;16.40;99.90;;;;;;5127686;27;20026;-74
2022/04/24 09:49:36;;;;;;;0.00;0.00;;;16.40;99.90;;;;;;5126171;27;20026;-74
2022/04/24 09:52:03;;;;;;;0.00;0.00;;;16.40;99.90;;;;;;5127833;27;20116;-74
2022/04/24 09:54:30;;;;;;;0.00;0.00;;;16.40;99.90;;;;;;5127359;27;20210;-74
2022/04/24 09:56:57;;;;;;;0.00;0.00;;;16.40;99.90;;;;;;5145887;27;20030;-73
2022/04/24 09:59:25;;;;;;;0.00;0.00;;;16.40;99.90;;;;;;5126533;27;20015;-73
2022/04/24 10:01:50;;;;;;;0.00;0.00;;;16.40;99.90;;;;;;5127606;27;20026;-73
2022/04/24 10:04:18;;;;;;;0.00;0.00;;;16.40;99.90;;;;;;5145713;27;20043;-74
2022/04/24 10:06:45;;;;;;;0.00;0.00;;;16.50;99.90;;;;;;5126697;27;20027;-73
2022/04/24 10:09:13;;;;;;;0.00;0.00;;;16.40;99.90;;;;;;5127553;27;20026;-74
2022/04/24 10:11:39;;;;;;;0.00;0.00;;;16.50;99.90;;;;;;5125453;27;20207;-74
2022/04/24 10:14:09;;;;;;;0.00;0.00;;;16.50;99.90;;;;;;5144573;27;20310;-74
2022/04/24 10:17:06;;;;;;;0.00;0.00;;;16.50;99.90;;;;;;5126914;27;20026;-74
2022/04/24 10:19:58;;;;;;;0.00;0.00;;;16.50;99.90;;;;;;5126806;27;20163;-73
2022/04/24 10:22:37;;;;;;;0.22;0.00;;;16.50;99.90;;;;;;5145320;27;20026;-73
2022/04/24 10:25:05;;;;;;;0.20;0.10;;;16.60;99.90;;;;;;5145395;27;20298;-73
2022/04/24 10:27:45;;;;;;;0.35;0.03;;;16.70;99.50;;;;;;5126694;27;20056;-74
2022/04/24 10:30:24;;;;;;;0.10;0.10;;;16.70;99.50;;;;;;5145222;27;20060;-74
2022/04/24 10:33:12;;;;;;;0.00;0.00;;;16.70;99.90;;;;;;5146116;27;20061;-74
2022/04/24 10:35:59;;;;;;;0.00;0.00;;;16.70;99.90;;;;;;5126643;27;20042;-75
2022/04/24 10:38:26;;;;;;;0.00;0.00;;;16.70;99.90;;;;;;5143031;27;20103;-72
2022/04/24 10:41:13;;;;;;;0.00;0.00;;;16.70;99.90;;;;;;5126628;27;20294;-75
2022/04/24 10:44:00;;;;;;;0.00;0.00;;;16.60;99.90;;;;;;5126441;27;20287;-74
2022/04/24 10:46:33;;;;;;;0.00;0.00;;;16.70;99.10;;;;;;5124384;27;20099;-74
2022/04/24 10:49:15;;;;;;;0.00;0.00;;;16.80;99.00;;;;;;5110053;27;20015;-74
2022/04/24 10:51:43;;;;;;;0.00;0.00;;;16.80;99.00;;;;;;5143921;27;20055;-74
2022/04/24 10:54:15;;;;;;;1.88;0.00;;;16.80;98.70;;;;;;5144960;27;20167;-74
2022/04/24 10:56:43;;;;;;;0.00;0.00;;;16.90;97.50;;;;;;5144485;27;20027;-74
2022/04/24 10:59:15;;;;;;;1.05;0.32;;;16.90;97.60;;;;;;5144519;27;20011;-74
2022/04/24 11:01:47;;;;;;;0.00;0.00;;;17.00;97.00;;;;;;5144076;27;20069;-74
2022/04/24 11:04:15;;;;;;;0.00;0.00;;;17.40;96.10;;;;;;5144694;27;20298;-73
2022/04/24 11:06:55;;;;;;;0.00;0.00;;;17.60;94.40;;;;;;5142327;27;20030;-74
2022/04/24 11:09:22;;;;;;;0.00;0.00;;;18.00;94.50;;;;;;5140576;27;20072;-74
2022/04/24 11:11:51;;;;;;;0.00;0.00;;;18.30;94.30;;;;;;5125370;27;20034;-74
2022/04/24 11:14:22;;;;;;;0.22;0.08;;;18.70;91.70;;;;;;5125969;27;20240;-75
2022/04/24 11:16:57;;;;;;;0.00;0.00;;;18.90;93.00;;;;;;5125819;27;20027;-74
2022/04/24 11:19:30;;;;;;;0.03;0.03;;;19.00;91.00;;;;;;5144495;27;20019;-74
2022/04/24 11:22:06;;;;;;;0.00;0.00;;;19.00;91.70;;;;;;5126112;27;20027;-74
2022/04/24 11:24:34;;;;;;;0.70;0.70;;;19.10;90.70;;;;;;5143752;27;20011;-74
2022/04/24 11:27:05;;;;;;;0.00;0.00;;;19.50;90.60;;;;;;5143957;27;20031;-73
2022/04/24 11:29:34;;;;;;;0.00;0.00;;;20.00;89.00;;;;;;5125135;27;20027;-73
2022/04/24 11:32:00;;;;;;;0.00;0.00;;;20.30;88.80;;;;;;5143735;27;20023;-73
2022/04/24 11:34:26;;;;;;;0.00;0.00;;;20.60;88.20;;;;;;5143650;27;20342;-74
2022/04/24 11:36:58;;;;;;;0.00;0.00;;;20.70;87.20;;;;;;5125593;27;20022;-74
2022/04/24 11:39:24;;;;;;;0.00;0.00;;;21.00;86.90;;;;;;5144153;27;20363;-73
2022/04/24 11:41:58;;;;;;;0.00;0.00;;;21.20;83.20;;;;;;5143638;27;20019;-73
2022/04/24 11:50:14;;;;;;;0.00;0.00;;;21.10;72.20;;;;;;5143541;27;20063;-73
2022/04/24 11:52:44;;;;;;;0.00;0.00;;;21.00;74.00;;;;;;5124841;27;20023;-73
2022/04/24 11:55:12;;;;;;;0.00;0.00;;;21.20;70.80;;;;;;5125079;27;20030;-74
2022/04/24 11:57:38;;;;;;;3.35;0.00;;;21.10;71.50;;;;;;5143045;27;20054;-74
2022/04/24 12:00:09;;;;;;;0.20;0.03;;;20.90;68.00;;;;;;5125343;27;20030;-74
2022/04/24 12:02:35;;;;;;;0.00;0.00;;;20.60;72.00;;;;;;5143399;27;20094;-73
2022/04/24 12:05:08;;;;;;;14.65;0.80;;;20.30;67.10;;;;;;5143766;27;20046;-74
2022/04/24 12:07:34;;;;;;;0.00;0.00;;;19.90;77.30;;;;;;5143100;27;20019;-73
2022/04/24 12:10:08;;;;;;;0.00;0.00;;;19.30;85.60;;;;;;5125156;28;20090;-74
2022/04/24 12:12:48;;;;;;;0.00;0.00;;;18.80;90.80;;;;;;5142560;27;20038;-73
2022/04/24 12:15:15;;;;;;;0.00;0.00;;;18.50;93.60;;;;;;5108836;28;20301;-74
2022/04/24 12:17:49;;;;;;;0.00;0.00;;;18.30;95.80;;;;;;5124677;28;20082;-74
2022/04/24 12:20:15;;;;;;;0.00;0.00;;;18.10;96.70;;;;;;5143479;28;20019;-74
2022/04/24 12:22:41;;;;;;;0.00;0.00;;;17.80;97.60;;;;;;5124602;28;20019;-73
2022/04/24 12:25:08;;;;;;;0.00;0.00;;;17.70;98.60;;;;;;5143281;28;20042;-74
2022/04/24 12:27:34;;;;;;;0.05;0.00;;;17.70;99.90;;;;;;5143106;28;20011;-75
2022/04/24 12:30:03;;;;;;;0.00;0.00;;;17.80;99.90;;;;;;5143268;28;20025;-74
2022/04/24 12:32:30;;;;;;;0.00;0.00;;;17.80;99.90;;;;;;5124887;28;20103;-74
2022/04/24 12:34:55;;;;;;;0.00;0.00;;;17.90;99.90;;;;;;5143356;28;20027;-75
2022/04/24 12:37:32;;;;;;;0.00;0.00;;;17.90;99.90;;;;;;5125246;28;20100;-75
2022/04/24 12:40:00;;;;;;;0.00;0.00;;;17.90;99.40;;;;;;5125120;28;20026;-74
2022/04/24 12:42:26;;;;;;;0.00;0.00;;;17.90;98.90;;;;;;5143403;28;20023;-75
2022/04/24 12:44:53;;;;;;;0.00;0.00;;;17.90;97.90;;;;;;5142935;28;20033;-74
2022/04/24 12:47:20;;;;;;;0.00;0.00;;;17.90;98.00;;;;;;5143118;28;20015;-74
2022/04/24 12:49:49;;;;;;;0.00;0.00;;;17.90;98.10;;;;;;5142720;28;20095;-75
2022/04/24 12:52:15;;;;;;;0.00;0.00;;;18.00;98.20;;;;;;5124878;28;20276;-75
2022/04/24 12:54:40;;;;;;;0.00;0.00;;;18.00;97.90;;;;;;5124669;28;20026;-74
2022/04/24 12:57:10;;;;;;;0.15;0.00;;;18.10;96.40;;;;;;5124928;28;20015;-74